Amboy, WA (98601)

11:53 PM PST on February 05, 2016 (GMT -0800)
Kelly Road | | Change Station
CLOSE
Current Station
Personal Weather Station
Location: Yacolt, WA
Elevation: 653 ft
Nearby Weather Stations

Elev 653 ft 45.84 °N, 122.50 °W | Updated 29 seconds ago

Mostly Cloudy
Mostly Cloudy
43.9 °F
Feels Like 44 °F
N
0.0
Wind Variable Wind from SE

Today
High -- | Low -- °F
--% Chance of Precip.
Yesterday
High -- | Low -- °F
Precip. -- in
Pressure 30.35 in
Visibility 1.0 miles
Clouds Scattered Clouds 200 ft
Mostly Cloudy 5000 ft
Windchill 44 °F
Dew Point 42 °F
Humidity 94%
Rainfall 0.27 in
Snow Depth Not available.
7:27 AM 5:21 PM
Waning Crescent, 7% visible
SPECI KSPB 060743Z AUTO 00000KT 1SM BR SCT002 BKN050 04/03 A3035 RMK AO2 VIS 1/2V3 T00390033
Pressure 30.35 in
Visibility 1.0 miles
Clouds Scattered Clouds 200 ft
Mostly Cloudy 5000 ft
Windchill 44 °F
Dew Point 42 °F
Humidity 94%
Rainfall 0.27 in
Snow Depth Not available.
7:27 AM 5:21 PM
Waning Crescent, 7% visible
SPECI KSPB 060743Z AUTO 00000KT 1SM BR SCT002 BKN050 04/03 A3035 RMK AO2 VIS 1/2V3 T00390033

10-Day Weather Forecast

Almanac

Astronomy

Feb. 05, 2016 Rise Set
Actual Time
Civil Twilight
Nautical Twilight
Astronomical Twilight
Moon
Length of Visible Light
Length of Day
Tomorrow will be .
, % of the Moon is Illuminated

Today's Extremes

State Highs State Lows

Community

WunderPhotos

Upload Photos

1,890,933 photos uploaded!

WunderBlog® & News

Nearby

Air Quality

  Air Quality AQ Index Pollutant
Not available.

Snow Depth

Station Depth Elevation

Earthquake Activity

City Distance Mag. Time & Date
Minimum magnitude displayed is 2.5.

Coastal Water Temperatures

Place Temperature

Stations

Nearby Weather Stations

Station Location Temp. Windchill Dew Point Humidity Wind Precip. Elev Updated Type
                   

Watches & Warnings

There are currently no watches in effect.